Time;durP1;ratioP1;P1;durP2;ratioP2;P2;SDS_P1;SDS_P2;PMS_P1;PMS_P2;Temp;Humidity;BMP_temperature;BMP_pressure;BME280_temperature;BME280_humidity;BME280_pressure;Samples;Min_cycle;Max_cycle;Signal;HPM_P1;HPM_P2
2024/01/24 00:01:39;;;;;;;1.5;1.2;;;;;;;;;;;;;
2024/01/24 00:04:04;;;;;;;1.8;1.4;;;;;;;;;;;;;
2024/01/24 00:06:29;;;;;;;2.7;1.5;;;;;;;;;;;;;
2024/01/24 00:08:55;;;;;;;4.9;2;;;;;;;;;;;;;
2024/01/24 00:11:20;;;;;;;4.2;1.9;;;;;;;;;;;;;
2024/01/24 00:13:45;;;;;;;3.7;2;;;;;;;;;;;;;
2024/01/24 00:16:10;;;;;;;3.6;1.6;;;;;;;;;;;;;
2024/01/24 00:18:35;;;;;;;2.1;1.3;;;;;;;;;;;;;
2024/01/24 00:21:00;;;;;;;3.6;1.5;;;;;;;;;;;;;
2024/01/24 00:24:58;;;;;;;2.8;1.5;;;;;;;5.45;97.5918;947.702;;;;
2024/01/24 00:27:23;;;;;;;2.5;1.3;;;;;;;5.53;97.51563;947.683;;;;
2024/01/24 00:29:48;;;;;;;3.1;1.3;;;;;;;5.39;97.83496;947.6775;;;;
2024/01/24 00:32:13;;;;;;;2.6;1.2;;;;;;;5.27;98.29102;947.4819;;;;
2024/01/24 00:34:40;;;;;;;2.5;0.9;;;;;;;5.31;98.50586;947.5518;;;;
2024/01/24 00:37:04;;;;;;;2.4;1.2;;;;;;;5.37;98.77832;947.4866;;;;
2024/01/24 00:39:29;;;;;;;1.5;1.1;;;;;;;5.47;98.45313;947.5023;;;;
2024/01/24 00:41:58;;;;;;;2;0.9;;;;;;;5.53;98.97168;947.6025;;;;
2024/01/24 00:44:19;;;;;;;1.7;1;;;;;;;5.43;99.44727;947.5367;;;;
2024/01/24 00:46:44;;;;;;;1.8;1.1;;;;;;;5.4;99.30566;947.7003;;;;
2024/01/24 00:49:09;;;;;;;1.4;0.9;;;;;;;5.44;99.21191;947.7084;;;;
2024/01/24 00:51:35;;;;;;;1.8;1.3;;;;;;;5.48;99.08691;947.5897;;;;
2024/01/24 00:54:00;;;;;;;1.9;0.9;;;;;;;5.45;98.77637;947.4794;;;;
2024/01/24 00:56:25;;;;;;;1.7;0.9;;;;;;;5.47;98.95898;947.3433;;;;
2024/01/24 00:58:50;;;;;;;1.8;0.8;;;;;;;5.5;99.00098;947.3811;;;;
2024/01/24 01:01:15;;;;;;;0.9;0.8;;;;;;;5.4;99.46387;947.3205;;;;
2024/01/24 01:03:40;;;;;;;1.1;0.8;;;;;;;5.54;99.58496;947.2809;;;;
2024/01/24 01:06:06;;;;;;;2.2;0.8;;;;;;;5.65;99.66699;947.2281;;;;
2024/01/24 01:08:30;;;;;;;2.1;0.8;;;;;;;5.55;100;947.3522;;;;
2024/01/24 01:10:55;;;;;;;0.9;0.8;;;;;;;5.49;100;947.2575;;;;
2024/01/24 01:13:21;;;;;;;2.4;1.1;;;;;;;5.42;100;947.1827;;;;
2024/01/24 01:15:46;;;;;;;2.2;1;;;;;;;5.44;100;947.2505;;;;
2024/01/24 01:18:11;;;;;;;2;1.7;;;;;;;5.42;100;947.2173;;;;
2024/01/24 01:20:36;;;;;;;3.6;2.4;;;;;;;5.28;100;947.0894;;;;
2024/01/24 01:23:01;;;;;;;2.7;2;;;;;;;5.22;100;947.1442;;;;
2024/01/24 01:25:26;;;;;;;1.5;1.3;;;;;;;5.28;100;947.1002;;;;
2024/01/24 01:27:51;;;;;;;1.3;1.2;;;;;;;5.18;100;947.0798;;;;
2024/01/24 01:30:17;;;;;;;1.7;1.6;;;;;;;5.19;100;946.9989;;;;
2024/01/24 01:32:43;;;;;;;0.8;0.8;;;;;;;5.21;100;946.9037;;;;
2024/01/24 01:35:07;;;;;;;1.6;0.7;;;;;;;5.27;100;947.0187;;;;
2024/01/24 01:37:32;;;;;;;0.7;0.7;;;;;;;5.2;100;946.9711;;;;
2024/01/24 01:39:59;;;;;;;1.3;1;;;;;;;5.25;100;946.9348;;;;
2024/01/24 01:42:23;;;;;;;1.1;1;;;;;;;5.25;100;946.8313;;;;
2024/01/24 01:44:48;;;;;;;1.6;0.6;;;;;;;5.41;100;946.8385;;;;
2024/01/24 01:47:13;;;;;;;1.2;0.6;;;;;;;5.48;100;946.7941;;;;
2024/01/24 01:49:38;;;;;;;1;1;;;;;;;5.38;100;946.7548;;;;
2024/01/24 01:52:03;;;;;;;1.3;1.2;;;;;;;5.44;100;946.7491;;;;
2024/01/24 01:54:29;;;;;;;1.8;0.6;;;;;;;5.48;100;946.5407;;;;
2024/01/24 01:56:53;;;;;;;1.3;1;;;;;;;5.52;100;946.5248;;;;
2024/01/24 01:59:18;;;;;;;1;0.8;;;;;;;5.52;100;946.7009;;;;
2024/01/24 02:01:43;;;;;;;0.9;0.6;;;;;;;5.45;100;946.6047;;;;
2024/01/24 02:04:08;;;;;;;0.8;0.8;;;;;;;5.46;100;946.588;;;;
2024/01/24 02:06:33;;;;;;;1.4;1.1;;;;;;;5.55;100;946.7023;;;;
2024/01/24 02:08:59;;;;;;;1.1;1;;;;;;;5.61;100;946.6;;;;
2024/01/24 02:11:24;;;;;;;1.4;1.1;;;;;;;5.49;100;946.5164;;;;
2024/01/24 02:13:49;;;;;;;1.1;1;;;;;;;5.54;100;946.4672;;;;
2024/01/24 02:16:15;;;;;;;1.5;1.3;;;;;;;5.49;100;946.4478;;;;
2024/01/24 02:18:40;;;;;;;1.5;1.4;;;;;;;5.53;100;946.4548;;;;
2024/01/24 02:21:04;;;;;;;1.6;1.5;;;;;;;5.45;100;946.3914;;;;
2024/01/24 02:23:30;;;;;;;1.8;1.7;;;;;;;5.42;100;946.2363;;;;
2024/01/24 02:25:54;;;;;;;1.6;1.5;;;;;;;5.55;100;946.3633;;;;
2024/01/24 02:28:19;;;;;;;1.6;1.5;;;;;;;5.42;100;946.2586;;;;
2024/01/24 02:30:44;;;;;;;2.2;1.3;;;;;;;5.37;100;946.2167;;;;
2024/01/24 02:33:10;;;;;;;1.9;1.3;;;;;;;5.34;100;946.2606;;;;
2024/01/24 02:35:35;;;;;;;3;2.1;;;;;;;5.29;100;946.1942;;;;
2024/01/24 02:38:00;;;;;;;3.1;2.9;;;;;;;5.27;100;946.1708;;;;
2024/01/24 02:40:25;;;;;;;2.1;2;;;;;;;5.26;100;946.0424;;;;
2024/01/24 02:42:50;;;;;;;1.8;1.7;;;;;;;5.32;100;945.9001;;;;
2024/01/24 02:45:15;;;;;;;1.2;1.1;;;;;;;5.4;100;945.7897;;;;
2024/01/24 02:47:40;;;;;;;0.7;0.7;;;;;;;5.43;100;945.743;;;;
2024/01/24 02:50:05;;;;;;;2;0.9;;;;;;;5.3;100;945.7296;;;;
2024/01/24 02:52:30;;;;;;;1.8;0.8;;;;;;;5.47;100;945.7977;;;;
2024/01/24 02:54:56;;;;;;;0.9;0.8;;;;;;;5.53;100;945.7708;;;;
2024/01/24 02:57:21;;;;;;;0.9;0.7;;;;;;;5.49;100;945.7939;;;;
2024/01/24 02:59:46;;;;;;;1.1;0.8;;;;;;;5.58;100;945.6669;;;;
2024/01/24 03:02:11;;;;;;;0.8;0.8;;;;;;;5.76;100;945.8086;;;;
2024/01/24 03:04:36;;;;;;;2.3;1.6;;;;;;;5.74;100;945.8514;;;;
2024/01/24 03:07:01;;;;;;;2.3;2.1;;;;;;;5.57;100;945.7495;;;;
2024/01/24 03:09:26;;;;;;;4.9;1.7;;;;;;;5.57;100;945.8074;;;;
2024/01/24 03:11:52;;;;;;;2.5;1.5;;;;;;;5.55;100;945.6438;;;;
2024/01/24 03:14:17;;;;;;;3.4;1.3;;;;;;;5.43;100;945.6072;;;;
2024/01/24 03:16:42;;;;;;;1;0.9;;;;;;;5.39;100;945.5912;;;;
2024/01/24 03:19:08;;;;;;;1.7;1;;;;;;;5.32;100;945.6531;;;;
2024/01/24 03:21:32;;;;;;;1.5;1.4;;;;;;;5.3;100;945.68;;;;
2024/01/24 03:23:57;;;;;;;2.4;1.2;;;;;;;5.42;100;945.6509;;;;
2024/01/24 03:26:22;;;;;;;2.2;1.6;;;;;;;5.51;100;945.4779;;;;
2024/01/24 03:28:50;;;;;;;2.8;1.8;;;;;;;5.39;100;945.467;;;;
2024/01/24 03:31:16;;;;;;;3.8;1.8;;;;;;;5.37;100;945.5531;;;;
2024/01/24 03:33:41;;;;;;;3.5;1.9;;;;;;;5.46;100;945.3842;;;;
2024/01/24 03:36:06;;;;;;;7.6;5.1;;;;;;;5.45;100;945.3475;;;;
2024/01/24 03:38:31;;;;;;;5.2;2.6;;;;;;;5.52;100;945.3303;;;;
2024/01/24 03:40:56;;;;;;;4.5;2.6;;;;;;;5.44;100;945.3439;;;;
2024/01/24 03:43:21;;;;;;;3.4;2;;;;;;;5.49;100;945.4856;;;;
2024/01/24 03:45:46;;;;;;;4.5;2;;;;;;;5.54;100;945.3857;;;;
2024/01/24 03:48:13;;;;;;;3.6;2.3;;;;;;;5.49;100;945.3663;;;;
2024/01/24 03:50:37;;;;;;;6.2;2.9;;;;;;;5.55;100;945.4612;;;;
2024/01/24 03:53:02;;;;;;;3.6;2.5;;;;;;;5.52;100;945.3921;;;;
2024/01/24 03:55:27;;;;;;;2.6;2;;;;;;;5.29;100;945.3669;;;;
2024/01/24 03:57:52;;;;;;;4.5;1.9;;;;;;;5.39;100;945.2856;;;;
2024/01/24 04:02:27;;;;;;;2.5;2;;;;;;;5.39;100;945.2114;;;;
2024/01/24 04:04:53;;;;;;;2.8;2.2;;;;;;;5.51;100;945.3664;;;;
2024/01/24 04:07:18;;;;;;;3.9;1.6;;;;;;;5.5;100;945.2494;;;;
2024/01/24 04:09:43;;;;;;;2.1;1.4;;;;;;;5.54;100;945.2308;;;;
2024/01/24 04:12:08;;;;;;;1.6;1.3;;;;;;;5.62;100;945.296;;;;
2024/01/24 04:14:33;;;;;;;2.7;1.3;;;;;;;5.65;100;945.2403;;;;
2024/01/24 04:16:58;;;;;;;4.2;3.5;;;;;;;5.63;100;945.2177;;;;
2024/01/24 04:19:24;;;;;;;2;1.5;;;;;;;5.55;100;945.2015;;;;
2024/01/24 04:21:49;;;;;;;1.7;1.4;;;;;;;5.48;100;945.3923;;;;
2024/01/24 04:24:14;;;;;;;3.3;2.2;;;;;;;5.58;100;945.3448;;;;
2024/01/24 04:26:39;;;;;;;2.7;1.9;;;;;;;5.51;100;945.2938;;;;
2024/01/24 04:29:04;;;;;;;2;1.7;;;;;;;5.56;100;945.2877;;;;
2024/01/24 04:31:29;;;;;;;2.4;1.6;;;;;;;5.59;100;945.3141;;;;
2024/01/24 04:33:55;;;;;;;1.9;1.4;;;;;;;5.62;100;945.3892;;;;
2024/01/24 04:36:20;;;;;;;1.5;1.4;;;;;;;5.6;100;945.3773;;;;
2024/01/24 04:38:45;;;;;;;3.3;1.7;;;;;;;5.53;100;945.4681;;;;
2024/01/24 04:41:10;;;;;;;5.1;3.3;;;;;;;5.53;100;945.3823;;;;
2024/01/24 04:43:35;;;;;;;5.2;3;;;;;;;5.49;100;945.3508;;;;
2024/01/24 04:46:00;;;;;;;3.3;2.4;;;;;;;5.5;100;945.2516;;;;
2024/01/24 04:48:25;;;;;;;3.9;2.7;;;;;;;5.53;100;945.2406;;;;
2024/01/24 04:50:50;;;;;;;4;2.9;;;;;;;5.41;100;945.2536;;;;
2024/01/24 04:53:15;;;;;;;3.2;2.9;;;;;;;5.46;100;945.2484;;;;
2024/01/24 04:55:40;;;;;;;5.8;5.3;;;;;;;5.44;100;945.4917;;;;
2024/01/24 04:58:06;;;;;;;6.8;5.9;;;;;;;5.48;100;945.4609;;;;
2024/01/24 05:00:30;;;;;;;3.4;3.1;;;;;;;5.49;100;945.3153;;;;
2024/01/24 05:02:56;;;;;;;2.1;1.6;;;;;;;5.52;100;945.4031;;;;
2024/01/24 05:05:21;;;;;;;1.5;1.3;;;;;;;5.59;100;945.2916;;;;
2024/01/24 05:07:46;;;;;;;1.1;1;;;;;;;5.64;100;945.2762;;;;
2024/01/24 05:10:11;;;;;;;2.5;2.1;;;;;;;5.6;100;945.4504;;;;
2024/01/24 05:12:36;;;;;;;2.1;1.5;;;;;;;5.74;100;945.3795;;;;
2024/01/24 05:15:01;;;;;;;2.9;1.5;;;;;;;5.74;100;945.4398;;;;
2024/01/24 05:17:26;;;;;;;2.3;1.5;;;;;;;5.86;100;945.5142;;;;
2024/01/24 05:19:51;;;;;;;3.3;1.9;;;;;;;5.88;100;945.3401;;;;
2024/01/24 05:22:17;;;;;;;3.8;2.6;;;;;;;5.85;100;945.5013;;;;
2024/01/24 05:24:41;;;;;;;4.4;2.9;;;;;;;5.87;100;945.5053;;;;
2024/01/24 05:27:07;;;;;;;4.8;3.1;;;;;;;5.81;100;945.4001;;;;
2024/01/24 05:29:32;;;;;;;5.7;4.2;;;;;;;5.94;100;945.5146;;;;
2024/01/24 05:31:57;;;;;;;117.1;54.4;;;;;;;5.78;100;945.3542;;;;
2024/01/24 05:34:22;;;;;;;39.9;20.4;;;;;;;5.8;100;945.4846;;;;
2024/01/24 05:36:47;;;;;;;23.3;12.6;;;;;;;5.92;100;945.5595;;;;
2024/01/24 05:39:15;;;;;;;27.1;15.9;;;;;;;5.77;100;945.5072;;;;
2024/01/24 05:41:37;;;;;;;21.1;12;;;;;;;5.76;100;945.5803;;;;
2024/01/24 05:44:02;;;;;;;83.4;41.3;;;;;;;5.68;100;945.5173;;;;
2024/01/24 05:46:27;;;;;;;17.1;10.6;;;;;;;5.75;100;945.528;;;;
2024/01/24 05:48:52;;;;;;;15.7;10.1;;;;;;;5.69;100;945.5327;;;;
2024/01/24 05:51:17;;;;;;;14.7;9.3;;;;;;;5.64;100;945.6097;;;;
2024/01/24 05:53:43;;;;;;;17.4;12;;;;;;;5.67;100;945.4023;;;;
2024/01/24 05:56:07;;;;;;;13;11.2;;;;;;;5.65;100;945.4109;;;;
2024/01/24 05:58:32;;;;;;;8.9;7.4;;;;;;;5.73;100;945.5514;;;;
2024/01/24 06:00:58;;;;;;;64.5;38.9;;;;;;;5.89;100;945.4704;;;;
2024/01/24 06:03:22;;;;;;;42.2;25.1;;;;;;;5.81;100;945.3907;;;;
2024/01/24 06:05:48;;;;;;;17.5;11.6;;;;;;;5.81;100;945.3688;;;;
2024/01/24 06:08:13;;;;;;;9.7;7.6;;;;;;;5.77;100;945.38;;;;
2024/01/24 06:10:38;;;;;;;7.2;6.2;;;;;;;5.78;100;945.4437;;;;
2024/01/24 06:13:03;;;;;;;11;8;;;;;;;5.83;100;945.4753;;;;
2024/01/24 06:15:30;;;;;;;39.5;28.9;;;;;;;6.13;100;945.4841;;;;
2024/01/24 06:17:53;;;;;;;18.5;12.6;;;;;;;6.15;100;945.4681;;;;
2024/01/24 06:20:19;;;;;;;9.9;6.2;;;;;;;6.17;100;945.2853;;;;
2024/01/24 06:22:44;;;;;;;8.5;5.7;;;;;;;6.03;100;945.2946;;;;
2024/01/24 06:25:09;;;;;;;8.6;5;;;;;;;6.04;100;945.2647;;;;
2024/01/24 06:27:34;;;;;;;15.7;14.3;;;;;;;6.01;100;945.3563;;;;
2024/01/24 06:29:59;;;;;;;14.4;13;;;;;;;6;100;945.3917;;;;
2024/01/24 06:32:24;;;;;;;18.4;11;;;;;;;6.02;100;945.2608;;;;
2024/01/24 06:34:49;;;;;;;11.1;7.4;;;;;;;6.15;100;945.2886;;;;
2024/01/24 06:37:14;;;;;;;4.2;3.3;;;;;;;6.23;100;945.2715;;;;
2024/01/24 06:39:39;;;;;;;4.2;3.4;;;;;;;6.19;100;945.1532;;;;
2024/01/24 06:42:04;;;;;;;6.8;3.9;;;;;;;6.18;100;945.2692;;;;
2024/01/24 06:44:30;;;;;;;5.8;3.7;;;;;;;6.2;100;945.3625;;;;
2024/01/24 06:46:55;;;;;;;5.7;4.1;;;;;;;6.08;100;945.098;;;;
2024/01/24 06:49:20;;;;;;;4.3;3.1;;;;;;;6.08;100;944.9945;;;;
2024/01/24 06:51:45;;;;;;;4.5;3.1;;;;;;;6.55;100;944.8909;;;;
2024/01/24 06:54:12;;;;;;;4.4;2.6;;;;;;;6.48;100;944.9794;;;;
2024/01/24 06:56:35;;;;;;;2.9;2.4;;;;;;;6.45;100;945.0099;;;;
2024/01/24 06:59:02;;;;;;;3.4;2.6;;;;;;;6.57;100;945.0948;;;;
2024/01/24 07:01:26;;;;;;;2.8;2.3;;;;;;;6.43;100;945.0306;;;;
2024/01/24 07:03:50;;;;;;;5.2;2.8;;;;;;;6.4;100;945.0632;;;;
2024/01/24 07:06:15;;;;;;;2.3;2.1;;;;;;;6.64;100;945.1932;;;;
2024/01/24 07:08:41;;;;;;;3.1;2;;;;;;;6.67;100;945.0709;;;;
2024/01/24 07:11:06;;;;;;;3.8;2.2;;;;;;;7.1;100;945.0402;;;;
2024/01/24 07:13:31;;;;;;;3.4;2.1;;;;;;;7.08;100;945.0302;;;;
2024/01/24 07:15:56;;;;;;;2.6;1.9;;;;;;;7.08;100;944.9073;;;;
2024/01/24 07:18:21;;;;;;;4.3;2.8;;;;;;;7.28;100;944.873;;;;
2024/01/24 07:20:46;;;;;;;3.9;2.7;;;;;;;6.98;100;944.6669;;;;
2024/01/24 07:23:12;;;;;;;3.8;2.7;;;;;;;6.99;100;944.6873;;;;
2024/01/24 07:25:37;;;;;;;4.2;3.4;;;;;;;6.98;100;945.0114;;;;
2024/01/24 07:28:02;;;;;;;3.7;2.5;;;;;;;6.83;100;944.8917;;;;
2024/01/24 07:30:28;;;;;;;4.5;3.5;;;;;;;6.84;100;945.0011;;;;
2024/01/24 07:32:52;;;;;;;3.6;2.8;;;;;;;6.99;100;944.7656;;;;
2024/01/24 07:35:18;;;;;;;4.6;3.2;;;;;;;7.38;100;944.7676;;;;
2024/01/24 07:37:44;;;;;;;4.6;3.2;;;;;;;7.35;100;944.7976;;;;
2024/01/24 07:40:10;;;;;;;4.7;2.9;;;;;;;7.6;99.96484;944.8716;;;;
2024/01/24 07:42:33;;;;;;;5;3.4;;;;;;;7.66;98.29883;944.9331;;;;
2024/01/24 07:44:59;;;;;;;7.8;2.8;;;;;;;7.52;96.48828;944.5101;;;;
2024/01/24 07:47:23;;;;;;;3.6;2.6;;;;;;;7.56;97.25391;945.0002;;;;
2024/01/24 07:49:48;;;;;;;3.3;2.5;;;;;;;7.81;97.36719;944.7708;;;;
2024/01/24 07:52:13;;;;;;;5;2.6;;;;;;;7.9;96.27832;944.94;;;;
2024/01/24 07:54:38;;;;;;;3.9;2.7;;;;;;;7.78;96.47656;945.0533;;;;
2024/01/24 07:57:03;;;;;;;2.8;2.4;;;;;;;7.96;95.88184;945.0457;;;;
2024/01/24 07:59:28;;;;;;;4.2;2.9;;;;;;;7.9;95.72168;944.7775;;;;
2024/01/24 08:01:53;;;;;;;4.1;2.7;;;;;;;7.88;95.72949;944.8524;;;;
2024/01/24 08:04:19;;;;;;;3;2.4;;;;;;;7.92;95.10156;944.709;;;;
2024/01/24 08:06:45;;;;;;;4.9;3.4;;;;;;;7.88;95.27344;944.81;;;;
2024/01/24 08:09:09;;;;;;;2.7;2.3;;;;;;;8.11;95.30273;944.6855;;;;
2024/01/24 08:11:34;;;;;;;3;2.2;;;;;;;8.24;94.55859;944.7037;;;;
2024/01/24 08:13:59;;;;;;;2.5;1.8;;;;;;;8.45;92.74219;944.777;;;;
2024/01/24 08:16:24;;;;;;;3.6;2.5;;;;;;;8.35;93.08301;944.7333;;;;
2024/01/24 08:18:50;;;;;;;3;2.7;;;;;;;8.2;93.57227;944.6063;;;;
2024/01/24 08:21:15;;;;;;;5.4;3.4;;;;;;;8.28;93.33984;944.8405;;;;
2024/01/24 08:23:40;;;;;;;4.8;3.6;;;;;;;8.15;94.41406;944.8325;;;;
2024/01/24 08:26:05;;;;;;;16.1;11.1;;;;;;;8.21;95.3457;944.6367;;;;
2024/01/24 08:28:30;;;;;;;8.2;5.6;;;;;;;8.23;95.75098;944.6783;;;;
2024/01/24 08:30:55;;;;;;;6.4;5.1;;;;;;;8.52;94.62012;944.697;;;;
2024/01/24 08:33:20;;;;;;;5.8;3.9;;;;;;;8.5;94.60449;944.5991;;;;
2024/01/24 08:35:46;;;;;;;3.3;2.6;;;;;;;8.97;91.23828;944.5389;;;;
2024/01/24 08:38:11;;;;;;;5.2;3.6;;;;;;;9.38;90.5293;944.6345;;;;
2024/01/24 08:40:38;;;;;;;4.7;3.1;;;;;;;9.42;89.23828;944.7274;;;;
2024/01/24 08:43:01;;;;;;;5.9;4.1;;;;;;;9.39;88.91211;944.6721;;;;
2024/01/24 08:45:26;;;;;;;6.9;4.5;;;;;;;9.69;87.60547;944.5533;;;;
2024/01/24 08:47:52;;;;;;;1.6;1.1;;;;;;;10.79;80.99805;944.5953;;;;
2024/01/24 08:50:17;;;;;;;1.7;1.5;;;;;;;10.97;79.07715;944.6324;;;;
2024/01/24 08:52:42;;;;;;;2.9;1.6;;;;;;;11.2;78.04395;944.4261;;;;
2024/01/24 08:55:08;;;;;;;1.8;1.7;;;;;;;11.58;75.43555;944.6716;;;;
2024/01/24 08:57:32;;;;;;;1.1;0.9;;;;;;;11.64;74.07129;944.6591;;;;
2024/01/24 08:59:57;;;;;;;2.2;1.6;;;;;;;11.97;72.71777;944.7004;;;;
2024/01/24 09:02:22;;;;;;;3.4;2.1;;;;;;;12.39;70.42871;944.7252;;;;
2024/01/24 09:04:50;;;;;;;1.2;1.1;;;;;;;12.66;68.29199;944.7522;;;;
2024/01/24 09:07:14;;;;;;;1.3;1;;;;;;;12.86;68.72559;944.742;;;;
2024/01/24 09:09:37;;;;;;;0.8;0.7;;;;;;;13.04;67.55957;944.7258;;;;
2024/01/24 09:12:03;;;;;;;1.3;1.1;;;;;;;13.26;66.01855;944.7206;;;;
2024/01/24 09:14:28;;;;;;;1.7;0.6;;;;;;;13.12;65.66406;944.509;;;;
2024/01/24 09:16:53;;;;;;;0.6;0.6;;;;;;;13.12;65.75684;944.7491;;;;
2024/01/24 09:19:19;;;;;;;1.1;0.8;;;;;;;13.19;64.27441;944.9611;;;;
2024/01/24 09:21:43;;;;;;;1.4;0.7;;;;;;;13.35;64.05469;944.8381;;;;
2024/01/24 09:24:08;;;;;;;1.3;1;;;;;;;13.54;62.62402;944.7762;;;;
2024/01/24 09:26:33;;;;;;;1.6;1.1;;;;;;;13.63;62.82031;944.6756;;;;
2024/01/24 09:28:58;;;;;;;0.7;0.5;;;;;;;13.8;59.86621;944.4895;;;;
2024/01/24 09:31:24;;;;;;;0.5;0.5;;;;;;;13.9;60.58105;944.7939;;;;
2024/01/24 09:33:48;;;;;;;0.5;0.5;;;;;;;13.9;59.76465;944.7244;;;;
2024/01/24 09:36:14;;;;;;;0.7;0.5;;;;;;;13.9;59.35059;944.5978;;;;
2024/01/24 09:38:39;;;;;;;0.4;0.4;;;;;;;13.95;59.05859;944.603;;;;
2024/01/24 09:41:04;;;;;;;1.4;0.6;;;;;;;14.1;58.61719;944.6146;;;;
2024/01/24 09:43:29;;;;;;;0.5;0.5;;;;;;;14.12;56.63965;944.7132;;;;
2024/01/24 09:45:55;;;;;;;0.4;0.4;;;;;;;14.16;57.0127;944.8728;;;;
2024/01/24 09:48:19;;;;;;;0.5;0.5;;;;;;;14.28;56.52246;944.7609;;;;
2024/01/24 09:50:44;;;;;;;0.8;0.5;;;;;;;14.34;56.23145;944.718;;;;
2024/01/24 09:53:10;;;;;;;0.6;0.6;;;;;;;14.42;54.74316;944.8661;;;;
2024/01/24 09:55:35;;;;;;;0.5;0.5;;;;;;;14.46;55.11621;944.9116;;;;
2024/01/24 09:58:00;;;;;;;1;0.6;;;;;;;14.37;54.66895;944.7542;;;;
2024/01/24 10:00:25;;;;;;;0.9;0.6;;;;;;;14.7;52.95801;944.884;;;;
2024/01/24 10:02:50;;;;;;;0.5;0.5;;;;;;;14.74;52.78809;944.7672;;;;
2024/01/24 10:05:15;;;;;;;0.7;0.7;;;;;;;14.82;53.01855;944.6451;;;;
2024/01/24 10:07:40;;;;;;;1;0.8;;;;;;;14.62;53.28223;945.0865;;;;
2024/01/24 10:10:05;;;;;;;1.2;0.7;;;;;;;14.74;51.89063;944.4786;;;;
2024/01/24 10:12:30;;;;;;;0.8;0.5;;;;;;;14.69;51.27246;944.8215;;;;
2024/01/24 10:14:55;;;;;;;2;0.4;;;;;;;14.77;51.4209;944.8459;;;;
2024/01/24 10:17:21;;;;;;;0.4;0.4;;;;;;;14.76;51.31641;944.7874;;;;
2024/01/24 10:19:46;;;;;;;0.4;0.4;;;;;;;14.98;50.33887;944.8965;;;;
2024/01/24 10:22:11;;;;;;;0.7;0.5;;;;;;;15.13;48.99512;944.9037;;;;
2024/01/24 10:24:36;;;;;;;0.5;0.5;;;;;;;15.37;49.5293;944.7031;;;;
2024/01/24 10:27:01;;;;;;;3.2;2.4;;;;;;;15.35;49.19238;944.7079;;;;
2024/01/24 10:29:26;;;;;;;4.9;2.9;;;;;;;15.32;50.01953;944.6605;;;;
2024/01/24 10:31:51;;;;;;;1.9;1.5;;;;;;;15.49;50.55859;944.5695;;;;
2024/01/24 10:34:17;;;;;;;6;4.2;;;;;;;15.59;49.14941;944.5386;;;;
2024/01/24 10:36:42;;;;;;;1.7;1.1;;;;;;;15.87;47.96777;944.5037;;;;
2024/01/24 10:39:06;;;;;;;1.2;1.1;;;;;;;16.04;47.29199;944.4596;;;;
2024/01/24 10:41:32;;;;;;;1;0.7;;;;;;;16.05;46.58789;944.5367;;;;
2024/01/24 10:43:57;;;;;;;0.4;0.4;;;;;;;16;46.82617;944.2979;;;;
2024/01/24 10:46:22;;;;;;;0.4;0.4;;;;;;;15.95;45.86035;944.2683;;;;
2024/01/24 10:48:47;;;;;;;0.4;0.3;;;;;;;16.35;46.27344;944.2341;;;;
2024/01/24 10:51:12;;;;;;;0.5;0.5;;;;;;;16.94;44.29492;944.4717;;;;
2024/01/24 10:53:38;;;;;;;0.4;0.4;;;;;;;17.04;44.07422;944.3201;;;;
2024/01/24 10:56:03;;;;;;;0.3;0.3;;;;;;;16.91;44.38574;944.1919;;;;
2024/01/24 10:58:28;;;;;;;0.6;0.6;;;;;;;16.4;45.61914;944.1577;;;;
2024/01/24 11:00:53;;;;;;;0.5;0.5;;;;;;;16.11;46.23633;943.9019;;;;
2024/01/24 11:03:18;;;;;;;0.5;0.5;;;;;;;16.16;45.43164;944.2014;;;;
2024/01/24 11:05:43;;;;;;;0.5;0.5;;;;;;;16.36;45.52246;944.1642;;;;
2024/01/24 11:08:08;;;;;;;0.3;0.3;;;;;;;16.31;45.38965;943.7288;;;;
2024/01/24 11:10:33;;;;;;;0.3;0.3;;;;;;;16.46;46.28516;943.9422;;;;
2024/01/24 11:12:58;;;;;;;0.4;0.4;;;;;;;16.44;45.69238;943.7992;;;;
2024/01/24 11:15:27;;;;;;;0.3;0.2;;;;;;;16.63;44.9707;943.7592;;;;
2024/01/24 11:17:49;;;;;;;0.4;0.4;;;;;;;16.7;44.29492;943.7222;;;;
2024/01/24 11:20:14;;;;;;;0.4;0.4;;;;;;;16.93;44.97754;943.8716;;;;
2024/01/24 11:22:39;;;;;;;0.3;0.2;;;;;;;16.82;45.46484;943.9044;;;;
2024/01/24 11:25:04;;;;;;;0.3;0.3;;;;;;;16.86;45.46875;943.79;;;;
2024/01/24 11:27:30;;;;;;;1.8;0.6;;;;;;;16.83;45.73242;943.758;;;;
2024/01/24 11:29:54;;;;;;;2;0.6;;;;;;;16.76;45.95605;943.9543;;;;
2024/01/24 11:32:19;;;;;;;0.3;0.3;;;;;;;16.6;46.84277;944.0261;;;;
2024/01/24 11:34:45;;;;;;;2;0.6;;;;;;;16.34;47.48633;944.0589;;;;
2024/01/24 11:37:10;;;;;;;0.5;0.2;;;;;;;16.2;47.76074;944.1322;;;;
2024/01/24 11:39:35;;;;;;;0.3;0.3;;;;;;;16.13;48.05469;943.7829;;;;
2024/01/24 11:42:00;;;;;;;0.8;0.3;;;;;;;15.94;48.67969;944.0369;;;;
2024/01/24 11:44:26;;;;;;;0.3;0.3;;;;;;;16.04;48.67969;943.7422;;;;
2024/01/24 11:46:50;;;;;;;0.2;0.2;;;;;;;16.09;48.25781;943.8136;;;;
2024/01/24 11:49:20;;;;;;;0.3;0.3;;;;;;;16.09;48.29199;943.7517;;;;
2024/01/24 11:51:41;;;;;;;0.2;0.2;;;;;;;15.91;48.67773;943.8258;;;;
2024/01/24 11:54:06;;;;;;;0.4;0.2;;;;;;;15.83;48.87695;943.8693;;;;
2024/01/24 11:56:34;;;;;;;0.2;0.2;;;;;;;15.74;49.3291;943.902;;;;
2024/01/24 11:58:56;;;;;;;1;0.2;;;;;;;15.56;49.85059;943.4641;;;;
2024/01/24 12:01:21;;;;;;;0.2;0.2;;;;;;;15.59;49.7627;943.5815;;;;
2024/01/24 12:03:46;;;;;;;0.1;0.1;;;;;;;15.71;49.56738;943.6291;;;;
2024/01/24 12:06:11;;;;;;;0.2;0.2;;;;;;;15.68;49.85254;943.9166;;;;
2024/01/24 12:08:36;;;;;;;0.8;0.2;;;;;;;15.71;50.06445;943.7712;;;;
2024/01/24 12:11:01;;;;;;;0.2;0.2;;;;;;;15.78;49.92188;943.8578;;;;
2024/01/24 12:13:27;;;;;;;1.7;0.4;;;;;;;15.73;50.44824;943.6033;;;;
2024/01/24 12:15:51;;;;;;;0.2;0.2;;;;;;;15.87;50.6377;943.8628;;;;
2024/01/24 12:18:17;;;;;;;1.4;0.4;;;;;;;15.84;50.51758;943.7697;;;;
2024/01/24 12:20:42;;;;;;;0.7;0.4;;;;;;;15.74;50.45996;943.7414;;;;
2024/01/24 12:23:08;;;;;;;1;0.2;;;;;;;15.71;50.83789;943.7247;;;;
2024/01/24 12:25:32;;;;;;;2;0.4;;;;;;;15.74;51.23535;943.6732;;;;
2024/01/24 12:27:58;;;;;;;1.9;0.4;;;;;;;15.74;50.96973;943.6869;;;;
2024/01/24 12:30:22;;;;;;;0.2;0.2;;;;;;;15.68;51.65527;943.7431;;;;
2024/01/24 12:32:48;;;;;;;0.2;0.2;;;;;;;15.7;51.47266;944.0025;;;;
2024/01/24 12:35:14;;;;;;;0.2;0.2;;;;;;;15.76;51.66504;944.1149;;;;
2024/01/24 12:37:38;;;;;;;0.2;0.2;;;;;;;15.75;51.81445;943.7808;;;;
2024/01/24 12:40:07;;;;;;;0.1;0.1;;;;;;;15.84;51.41992;943.8725;;;;
2024/01/24 12:42:28;;;;;;;0.3;0.3;;;;;;;15.98;51.37988;943.8529;;;;
2024/01/24 12:44:53;;;;;;;0.2;0.2;;;;;;;15.92;51.34863;943.5542;;;;
2024/01/24 12:47:19;;;;;;;0.2;0.2;;;;;;;16.06;51.39941;943.7028;;;;
2024/01/24 12:49:44;;;;;;;0.3;0.3;;;;;;;16.04;51.35059;943.7125;;;;
2024/01/24 12:52:09;;;;;;;0.2;0.2;;;;;;;16.09;50.98633;943.7244;;;;
2024/01/24 12:54:34;;;;;;;0.2;0.2;;;;;;;15.99;51.36816;943.7556;;;;
2024/01/24 12:56:59;;;;;;;0.3;0.3;;;;;;;16;52.14355;943.7758;;;;
2024/01/24 12:59:24;;;;;;;0.2;0.2;;;;;;;15.89;51.69238;943.7905;;;;
2024/01/24 13:01:52;;;;;;;0.3;0.3;;;;;;;15.85;51.83691;943.6219;;;;
2024/01/24 13:04:15;;;;;;;1.3;0.4;;;;;;;15.73;52.11133;943.6909;;;;
2024/01/24 13:06:40;;;;;;;0.3;0.3;;;;;;;15.77;52.34668;943.6652;;;;
2024/01/24 13:09:06;;;;;;;1;0.7;;;;;;;15.86;51.84961;943.3359;;;;
2024/01/24 13:11:30;;;;;;;0.5;0.4;;;;;;;15.82;51.92676;943.4855;;;;
2024/01/24 13:13:55;;;;;;;0.3;0.3;;;;;;;15.92;51.26758;943.3414;;;;
2024/01/24 13:16:21;;;;;;;0.3;0.3;;;;;;;15.89;51.78516;943.2925;;;;
2024/01/24 13:18:45;;;;;;;1.1;0.6;;;;;;;15.8;51.62305;943.3527;;;;
2024/01/24 13:21:11;;;;;;;1.7;1;;;;;;;15.8;51.62402;943.608;;;;
2024/01/24 13:23:36;;;;;;;0.4;0.4;;;;;;;15.84;51.5459;943.4131;;;;
2024/01/24 13:26:01;;;;;;;0.2;0.2;;;;;;;15.83;51.28027;943.3376;;;;
2024/01/24 13:28:26;;;;;;;2.7;2.2;;;;;;;15.91;51.56641;943.3149;;;;
2024/01/24 13:30:51;;;;;;;0.4;0.4;;;;;;;15.85;51.30566;943.4774;;;;
2024/01/24 13:33:16;;;;;;;0.6;0.6;;;;;;;15.86;51.73438;943.4733;;;;
2024/01/24 13:35:41;;;;;;;0.6;0.6;;;;;;;15.85;51.95313;943.275;;;;
2024/01/24 13:38:07;;;;;;;0.4;0.4;;;;;;;15.85;51.91797;943.4468;;;;
2024/01/24 13:40:32;;;;;;;0.2;0.2;;;;;;;16.01;50.96484;943.4487;;;;
2024/01/24 13:42:57;;;;;;;0.5;0.3;;;;;;;15.95;51.56055;943.4249;;;;
2024/01/24 13:45:22;;;;;;;0.3;0.3;;;;;;;15.91;51.8916;943.4659;;;;
2024/01/24 13:47:47;;;;;;;0.2;0.2;;;;;;;15.9;51.58887;943.3511;;;;
2024/01/24 13:50:12;;;;;;;2.2;1.8;;;;;;;16.01;51.17383;943.5042;;;;
2024/01/24 13:52:37;;;;;;;0.3;0.3;;;;;;;15.99;50.85938;943.452;;;;
2024/01/24 13:55:03;;;;;;;0.5;0.3;;;;;;;15.91;51.16211;943.4908;;;;
2024/01/24 13:57:28;;;;;;;0.5;0.4;;;;;;;15.85;51.375;943.593;;;;
2024/01/24 13:59:53;;;;;;;0.5;0.2;;;;;;;15.72;51.5332;943.462;;;;
2024/01/24 14:02:18;;;;;;;0.6;0.2;;;;;;;15.79;51.40234;943.2073;;;;
2024/01/24 14:04:43;;;;;;;0.2;0.2;;;;;;;15.72;51.6709;943.2277;;;;
2024/01/24 14:07:08;;;;;;;0.9;0.3;;;;;;;15.94;51.21094;943.4305;;;;
2024/01/24 14:09:33;;;;;;;2.1;1.5;;;;;;;15.79;51.62207;943.3728;;;;
2024/01/24 14:11:59;;;;;;;1.3;1.1;;;;;;;15.85;51.27148;943.4645;;;;
2024/01/24 14:14:24;;;;;;;1.4;0.4;;;;;;;15.79;50.97559;943.7076;;;;
2024/01/24 14:16:49;;;;;;;0.6;0.4;;;;;;;15.81;50.76855;943.6072;;;;
2024/01/24 14:19:14;;;;;;;1.8;0.3;;;;;;;15.81;51.05859;943.5133;;;;
2024/01/24 14:21:40;;;;;;;0.4;0.4;;;;;;;15.85;51.31738;943.5126;;;;
2024/01/24 14:24:04;;;;;;;0.6;0.5;;;;;;;15.78;51.48242;943.596;;;;
2024/01/24 14:26:30;;;;;;;0.9;0.7;;;;;;;15.85;51.62793;943.6275;;;;
2024/01/24 14:28:55;;;;;;;1.5;0.6;;;;;;;15.9;51.45117;943.7736;;;;
2024/01/24 14:31:20;;;;;;;0.6;0.4;;;;;;;15.82;51.80957;943.7826;;;;
2024/01/24 14:33:45;;;;;;;0.8;0.5;;;;;;;15.85;51.64063;943.9672;;;;
2024/01/24 14:36:10;;;;;;;0.4;0.4;;;;;;;15.88;51.27441;944.1166;;;;
2024/01/24 14:38:35;;;;;;;0.2;0.2;;;;;;;15.86;51.73438;944.303;;;;
2024/01/24 14:41:01;;;;;;;0.4;0.4;;;;;;;15.75;52.26465;944.2634;;;;
2024/01/24 14:43:26;;;;;;;1;0.4;;;;;;;15.57;53.06348;944.3022;;;;
2024/01/24 14:45:51;;;;;;;1;0.3;;;;;;;15.56;53.08496;944.218;;;;
2024/01/24 14:48:16;;;;;;;0.4;0.4;;;;;;;15.69;53.27344;944.2088;;;;
2024/01/24 14:50:41;;;;;;;0.5;0.5;;;;;;;15.66;53.57031;944.3599;;;;
2024/01/24 14:53:06;;;;;;;1.4;0.4;;;;;;;15.63;53.86719;944.5035;;;;
2024/01/24 14:55:31;;;;;;;0.5;0.5;;;;;;;15.56;54.50488;944.5567;;;;
2024/01/24 14:57:56;;;;;;;0.3;0.3;;;;;;;15.45;55.77441;944.722;;;;